createdAt,value
2022-10-02T00:00:13.400Z,99.90
2022-10-02T00:02:50.778Z,99.90
2022-10-02T00:05:36.757Z,99.90
2022-10-02T00:08:10.392Z,99.90
2022-10-02T00:10:45.962Z,99.90
2022-10-02T00:13:20.697Z,99.90
2022-10-02T00:15:49.890Z,99.90
2022-10-02T00:18:25.943Z,99.90
2022-10-02T00:21:05.821Z,99.90
2022-10-02T00:23:41.679Z,99.90
2022-10-02T00:26:24.260Z,99.90
2022-10-02T00:28:58.885Z,99.90
2022-10-02T00:31:45.766Z,99.90
2022-10-02T00:34:57.489Z,99.90
2022-10-02T00:37:51.513Z,99.90
2022-10-02T00:40:53.317Z,99.90
2022-10-02T00:43:50.994Z,99.90
2022-10-02T00:46:46.829Z,99.90
2022-10-02T00:49:23.146Z,99.90
2022-10-02T00:59:56.698Z,99.90
2022-10-02T01:05:52.167Z,99.90
2022-10-02T01:23:50.142Z,99.90
2022-10-02T02:55:44.914Z,99.90
2022-10-02T02:58:41.366Z,99.90
2022-10-02T03:01:09.512Z,99.90
2022-10-02T03:03:37.310Z,99.90
2022-10-02T03:06:31.831Z,99.90
2022-10-02T03:09:01.385Z,99.90
2022-10-02T03:11:36.562Z,99.90
2022-10-02T03:14:24.956Z,99.90
2022-10-02T03:17:04.776Z,99.90
2022-10-02T03:19:44.394Z,99.90
2022-10-02T03:22:18.182Z,99.90
2022-10-02T03:24:52.319Z,99.90
2022-10-02T03:28:04.680Z,99.90
2022-10-02T03:30:33.520Z,99.90
2022-10-02T03:33:03.373Z,99.90
2022-10-02T03:35:34.521Z,99.90
2022-10-02T03:38:09.834Z,99.90
2022-10-02T03:40:37.568Z,99.90
2022-10-02T03:43:05.420Z,99.90
2022-10-02T03:45:50.445Z,99.90
2022-10-02T03:48:19.577Z,99.90
2022-10-02T03:50:47.777Z,99.90
2022-10-02T03:53:19.011Z,99.90
2022-10-02T03:56:08.715Z,99.90
2022-10-02T03:58:40.368Z,99.90
2022-10-02T04:01:32.189Z,99.90
2022-10-02T04:04:06.552Z,99.90
2022-10-02T04:06:35.218Z,99.90
2022-10-02T04:09:10.898Z,99.90
2022-10-02T04:11:57.513Z,99.90
2022-10-02T04:14:34.721Z,99.90
2022-10-02T04:17:08.508Z,99.90
2022-10-02T04:19:45.638Z,99.90
2022-10-02T04:22:23.099Z,99.90
2022-10-02T04:24:56.601Z,99.90
2022-10-02T04:27:56.349Z,99.90
2022-10-02T04:30:24.221Z,99.90
2022-10-02T04:32:55.649Z,99.90
2022-10-02T04:35:36.888Z,99.90
2022-10-02T04:38:10.802Z,99.90
2022-10-02T04:41:11.537Z,99.90
2022-10-02T04:44:00.200Z,99.90
2022-10-02T04:46:53.360Z,99.90
2022-10-02T04:49:33.417Z,99.90
2022-10-02T04:52:23.948Z,99.90
2022-10-02T04:55:07.297Z,99.90
2022-10-02T04:57:58.508Z,99.90
2022-10-02T05:00:29.007Z,99.90
2022-10-02T05:03:35.036Z,99.90
2022-10-02T05:06:29.559Z,99.90
2022-10-02T05:09:16.287Z,99.90
2022-10-02T05:11:53.249Z,99.90
2022-10-02T05:14:51.185Z,99.90
2022-10-02T05:17:43.430Z,99.90
2022-10-02T05:20:21.836Z,99.90
2022-10-02T05:23:02.665Z,99.90
2022-10-02T05:26:23.907Z,99.90
2022-10-02T05:29:16.659Z,99.90
2022-10-02T05:31:47.500Z,99.90
2022-10-02T05:34:21.651Z,99.90
2022-10-02T05:37:13.778Z,99.90
2022-10-02T05:39:53.942Z,99.90
2022-10-02T05:42:39.074Z,99.90
2022-10-02T05:45:24.785Z,99.90
2022-10-02T05:47:59.579Z,99.90
2022-10-02T05:50:35.234Z,99.90
2022-10-02T05:53:43.640Z,99.90
2022-10-02T05:56:22.720Z,99.90
2022-10-02T05:59:14.267Z,99.90
2022-10-02T06:01:47.962Z,99.90
2022-10-02T06:04:22.872Z,99.90
2022-10-02T06:06:54.315Z,99.90
2022-10-02T06:09:29.347Z,99.90
2022-10-02T06:12:30.623Z,99.90
2022-10-02T06:15:17.193Z,99.90
2022-10-02T06:17:56.764Z,99.90
2022-10-02T06:20:53.313Z,99.90
2022-10-02T06:23:47.104Z,99.90
2022-10-02T06:26:38.733Z,99.90
2022-10-02T06:29:22.589Z,99.90
2022-10-02T06:32:09.721Z,99.90
2022-10-02T06:34:37.437Z,99.90
2022-10-02T06:37:23.309Z,99.90
2022-10-02T06:40:03.145Z,99.90
2022-10-02T06:43:01.372Z,99.90
2022-10-02T06:46:07.284Z,99.90
2022-10-02T06:48:48.283Z,99.90
2022-10-02T06:51:51.308Z,99.90
2022-10-02T06:54:53.797Z,99.90
2022-10-02T06:57:50.412Z,99.90
2022-10-02T07:00:22.546Z,99.90
2022-10-02T07:03:28.775Z,99.90
2022-10-02T07:06:05.685Z,99.90
2022-10-02T07:09:07.578Z,99.90
2022-10-02T07:12:09.501Z,99.90
2022-10-02T07:14:58.852Z,99.90
2022-10-02T07:17:35.802Z,99.90
2022-10-02T07:20:09.396Z,99.90
2022-10-02T07:22:46.246Z,99.90
2022-10-02T07:25:48.289Z,99.90
2022-10-02T07:28:43.508Z,99.90
2022-10-02T07:31:32.218Z,99.90
2022-10-02T07:34:27.662Z,99.90
2022-10-02T07:37:01.326Z,99.90
2022-10-02T07:39:35.841Z,99.90
2022-10-02T07:42:23.061Z,99.90
2022-10-02T07:45:12.876Z,99.90
2022-10-02T07:48:06.665Z,99.90
2022-10-02T07:50:52.980Z,99.90
2022-10-02T07:53:47.038Z,99.90
2022-10-02T07:56:20.091Z,99.90
2022-10-02T07:58:58.972Z,99.90
2022-10-02T08:01:33.280Z,99.90
2022-10-02T08:04:18.987Z,99.90
2022-10-02T08:06:48.404Z,99.90
2022-10-02T08:09:23.370Z,99.90
2022-10-02T08:11:59.851Z,99.90
2022-10-02T08:14:32.981Z,99.90
2022-10-02T08:17:28.971Z,99.90
2022-10-02T08:20:20.099Z,99.90
2022-10-02T08:23:23.437Z,99.90
2022-10-02T08:25:54.967Z,99.90
2022-10-02T08:28:58.144Z,99.90
2022-10-02T08:31:26.308Z,99.90
2022-10-02T08:33:54.279Z,99.90
2022-10-02T08:36:44.297Z,99.90
2022-10-02T08:39:53.747Z,99.90
2022-10-02T08:42:24.967Z,99.90
2022-10-02T08:45:34.094Z,99.90
2022-10-02T08:48:55.058Z,99.90
2022-10-02T08:51:22.592Z,99.90
2022-10-02T08:54:05.609Z,99.90
2022-10-02T08:57:12.786Z,99.90
2022-10-02T09:00:10.267Z,99.90
2022-10-02T09:03:12.585Z,99.90
2022-10-02T09:06:12.342Z,99.90
2022-10-02T09:09:17.319Z,99.90
2022-10-02T09:12:21.921Z,99.90
2022-10-02T09:15:23.073Z,99.90
2022-10-02T09:18:16.768Z,99.90
2022-10-02T09:20:47.093Z,99.90
2022-10-02T09:23:49.286Z,99.90
2022-10-02T09:26:36.491Z,99.90
2022-10-02T09:29:23.037Z,99.90
2022-10-02T09:32:06.929Z,99.90
2022-10-02T09:34:49.659Z,99.90
2022-10-02T09:37:45.227Z,99.90
2022-10-02T09:40:23.343Z,99.90
2022-10-02T09:42:54.050Z,99.90
2022-10-02T09:45:51.490Z,99.90
2022-10-02T09:48:47.049Z,99.90
2022-10-02T09:51:48.542Z,99.90
2022-10-02T09:54:53.901Z,99.90
2022-10-02T09:57:31.430Z,99.90
2022-10-02T10:00:17.880Z,99.90
2022-10-02T10:03:07.172Z,99.90
2022-10-02T10:06:16.888Z,99.90
2022-10-02T10:09:26.199Z,99.90
2022-10-02T10:12:16.971Z,99.90
2022-10-02T10:15:18.129Z,99.90
2022-10-02T10:18:12.285Z,99.90
2022-10-02T10:21:04.866Z,99.90
2022-10-02T10:23:51.571Z,99.90
2022-10-02T10:26:44.234Z,99.90
2022-10-02T10:29:41.358Z,99.90
2022-10-02T10:32:24.158Z,99.90
2022-10-02T10:34:58.035Z,99.90
2022-10-02T10:38:12.632Z,99.90
2022-10-02T10:41:12.773Z,99.90
2022-10-02T10:44:29.244Z,99.90
2022-10-02T10:47:32.069Z,99.90
2022-10-02T10:50:27.244Z,99.90
2022-10-02T10:53:12.976Z,99.90
2022-10-02T10:56:26.182Z,99.90
2022-10-02T10:59:42.336Z,99.90
2022-10-02T11:02:40.246Z,99.90
2022-10-02T11:05:45.860Z,99.90
2022-10-02T11:08:55.521Z,99.90
2022-10-02T11:11:51.517Z,99.90
2022-10-02T11:14:19.646Z,99.90
2022-10-02T11:17:23.211Z,99.90
2022-10-02T11:20:03.214Z,99.90
2022-10-02T11:22:40.553Z,99.90
2022-10-02T11:25:14.454Z,99.90
2022-10-02T11:28:10.250Z,99.90
2022-10-02T11:31:34.839Z,98.40
2022-10-02T11:34:19.886Z,96.10
2022-10-02T11:37:05.867Z,98.80
2022-10-02T11:40:13.284Z,95.90
2022-10-02T11:42:58.141Z,92.30
2022-10-02T11:45:59.717Z,92.00
2022-10-02T11:48:39.202Z,93.30
2022-10-02T11:51:47.714Z,90.60
2022-10-02T11:54:55.109Z,87.20
2022-10-02T11:57:48.118Z,86.70
2022-10-02T12:00:41.065Z,81.90
2022-10-02T12:03:31.487Z,79.10
2022-10-02T12:06:15.572Z,77.90
2022-10-02T12:09:06.391Z,78.20
2022-10-02T12:11:37.208Z,80.20
2022-10-02T12:14:23.715Z,79.60
2022-10-02T12:16:54.162Z,69.70
2022-10-02T12:20:23.852Z,79.50
2022-10-02T12:23:42.378Z,71.70
2022-10-02T12:27:07.079Z,73.90
2022-10-02T12:29:41.038Z,70.10
2022-10-02T12:32:30.678Z,73.00
2022-10-02T12:35:29.725Z,68.30
2022-10-02T12:37:57.379Z,66.70
2022-10-02T12:40:46.721Z,72.30
2022-10-02T12:43:36.172Z,70.10
2022-10-02T12:46:19.807Z,69.50
2022-10-02T12:49:26.511Z,64.00
2022-10-02T12:52:06.350Z,63.40
2022-10-02T12:54:34.098Z,68.70
2022-10-02T12:57:07.902Z,68.50
2022-10-02T13:00:01.778Z,65.70
2022-10-02T13:03:05.919Z,63.30
2022-10-02T13:05:58.066Z,64.00
2022-10-02T13:09:03.453Z,66.80
2022-10-02T13:11:53.665Z,66.10
2022-10-02T13:14:25.258Z,68.80
2022-10-02T13:17:21.060Z,70.10
2022-10-02T13:19:56.740Z,68.40
2022-10-02T13:22:50.519Z,70.90
2022-10-02T13:25:46.794Z,69.40
2022-10-02T13:28:29.976Z,71.90
2022-10-02T13:31:37.155Z,72.00
2022-10-02T13:34:25.829Z,71.40
2022-10-02T13:37:25.151Z,72.80
2022-10-02T13:40:38.367Z,72.80
2022-10-02T13:43:06.435Z,73.70
2022-10-02T13:46:09.194Z,73.80
2022-10-02T13:49:11.494Z,73.50
2022-10-02T13:52:03.069Z,75.30
2022-10-02T13:55:02.498Z,74.90
2022-10-02T13:57:36.040Z,75.90
2022-10-02T14:00:40.273Z,75.80
2022-10-02T14:03:35.726Z,75.30
2022-10-02T14:06:31.822Z,75.80
2022-10-02T14:09:16.686Z,76.40
2022-10-02T14:11:50.216Z,77.00
2022-10-02T14:14:24.047Z,77.40
2022-10-02T14:17:06.790Z,77.50
2022-10-02T14:19:43.942Z,77.40
2022-10-02T14:22:14.647Z,76.90
2022-10-02T14:25:17.184Z,77.40
2022-10-02T14:27:57.527Z,77.70
2022-10-02T14:30:49.490Z,77.10
2022-10-02T14:33:56.053Z,77.00
2022-10-02T14:36:37.466Z,77.20
2022-10-02T14:39:05.074Z,77.60
2022-10-02T14:41:52.175Z,77.30
2022-10-02T14:44:49.084Z,76.70
2022-10-02T14:47:42.361Z,76.60
2022-10-02T14:50:15.568Z,76.70
2022-10-02T14:53:13.413Z,76.70
2022-10-02T14:56:08.193Z,76.40
2022-10-02T14:59:18.219Z,76.60
2022-10-02T15:02:10.753Z,76.50
2022-10-02T15:04:53.989Z,77.50
2022-10-02T15:07:25.620Z,78.20
2022-10-02T15:10:13.745Z,78.50
2022-10-02T15:13:09.887Z,78.50
2022-10-02T15:16:27.061Z,78.30
2022-10-02T15:19:15.478Z,78.90
2022-10-02T15:21:58.571Z,79.00
2022-10-02T15:24:33.499Z,79.20
2022-10-02T15:27:46.044Z,79.20
2022-10-02T15:30:50.560Z,78.80
2022-10-02T15:33:43.384Z,79.10
2022-10-02T15:36:19.511Z,79.40
2022-10-02T15:39:05.105Z,79.80
2022-10-02T15:42:24.661Z,79.70
2022-10-02T15:45:04.585Z,79.90
2022-10-02T15:47:50.865Z,80.30
2022-10-02T15:51:32.984Z,80.60
2022-10-02T15:54:27.372Z,81.30
2022-10-02T15:57:14.082Z,81.20
2022-10-02T16:00:19.765Z,81.00
2022-10-02T16:02:57.439Z,82.00
2022-10-02T16:05:57.352Z,82.00
2022-10-02T16:08:57.746Z,82.20
2022-10-02T16:11:25.610Z,82.10
2022-10-02T16:14:15.345Z,82.30
2022-10-02T16:17:04.872Z,81.70
2022-10-02T16:19:50.969Z,81.90
2022-10-02T16:22:27.805Z,82.20
2022-10-02T16:25:29.514Z,81.90
2022-10-02T16:28:13.403Z,81.40
2022-10-02T16:30:56.427Z,81.60
2022-10-02T16:33:56.636Z,81.20
2022-10-02T16:36:58.551Z,80.60
2022-10-02T16:40:02.709Z,80.60
2022-10-02T16:42:38.333Z,80.70
2022-10-02T16:45:34.579Z,80.90
2022-10-02T16:48:15.210Z,81.20
2022-10-02T16:51:13.607Z,81.90
2022-10-02T16:53:54.259Z,81.90
2022-10-02T16:56:46.799Z,81.90
2022-10-02T16:59:26.865Z,81.90
2022-10-02T17:02:33.582Z,82.50
2022-10-02T17:05:50.866Z,83.20
2022-10-02T17:08:41.933Z,83.70
2022-10-02T17:11:22.353Z,84.00
2022-10-02T17:14:50.581Z,83.60
2022-10-02T17:18:01.715Z,84.60
2022-10-02T17:21:28.877Z,86.00
2022-10-02T17:24:57.255Z,85.70
2022-10-02T17:27:33.556Z,87.80
2022-10-02T17:30:31.081Z,87.20
2022-10-02T17:33:32.641Z,89.30
2022-10-02T17:36:19.647Z,90.00
2022-10-02T17:39:03.907Z,90.10
2022-10-02T17:41:57.252Z,90.40
2022-10-02T17:44:46.356Z,90.90
2022-10-02T17:47:23.855Z,91.00
2022-10-02T17:50:07.729Z,90.70
2022-10-02T17:53:16.081Z,90.80
2022-10-02T17:56:26.886Z,91.60
2022-10-02T17:59:39.057Z,91.60
2022-10-02T18:02:28.995Z,92.00
2022-10-02T18:04:59.547Z,91.70
2022-10-02T18:07:39.342Z,91.70
2022-10-02T18:10:39.744Z,91.90
2022-10-02T18:13:16.572Z,92.60
2022-10-02T18:16:14.884Z,92.30
2022-10-02T18:19:03.125Z,92.80
2022-10-02T18:21:39.407Z,93.20
2022-10-02T18:24:07.076Z,93.20
2022-10-02T18:26:56.231Z,93.40
2022-10-02T18:29:36.003Z,93.70
2022-10-02T18:32:38.139Z,93.90
2022-10-02T18:35:38.753Z,94.60
2022-10-02T18:38:27.969Z,94.50
2022-10-02T18:41:28.170Z,94.70
2022-10-02T18:44:08.379Z,95.20
2022-10-02T18:47:14.023Z,95.20
2022-10-02T18:49:55.349Z,95.50
2022-10-02T18:53:04.551Z,95.60
2022-10-02T18:55:40.490Z,96.60
2022-10-02T18:58:14.726Z,96.50
2022-10-02T19:01:15.403Z,96.40
2022-10-02T19:04:11.582Z,96.80
2022-10-02T19:06:49.992Z,97.10
2022-10-02T19:09:26.343Z,97.30
2022-10-02T19:12:01.368Z,97.50
2022-10-02T19:14:42.503Z,97.80
2022-10-02T19:17:22.821Z,98.00
2022-10-02T19:19:50.828Z,98.30
2022-10-02T19:22:32.895Z,98.70
2022-10-02T19:25:16.238Z,98.90
2022-10-02T19:27:50.494Z,99.30
2022-10-02T19:30:31.920Z,99.50
2022-10-02T19:33:08.031Z,99.50
2022-10-02T19:35:47.125Z,99.50
2022-10-02T19:38:32.373Z,99.90
2022-10-02T19:41:19.754Z,99.90
2022-10-02T19:44:03.511Z,99.90
2022-10-02T19:46:44.574Z,99.90
2022-10-02T19:49:28.671Z,99.90
2022-10-02T19:52:15.224Z,99.90
2022-10-02T19:56:11.032Z,99.90
2022-10-02T19:58:49.506Z,99.90
2022-10-02T20:01:55.677Z,99.90
2022-10-02T20:04:42.597Z,99.90
2022-10-02T20:07:19.634Z,99.90
2022-10-02T20:10:12.427Z,99.90
2022-10-02T20:13:00.172Z,99.90
2022-10-02T20:15:56.118Z,99.90
2022-10-02T20:18:24.875Z,99.90
2022-10-02T20:20:59.630Z,99.90
2022-10-02T20:23:34.868Z,99.90
2022-10-02T20:26:09.042Z,99.90
2022-10-02T20:28:48.011Z,99.90
2022-10-02T20:31:33.398Z,99.90
2022-10-02T20:34:06.390Z,99.90
2022-10-02T20:40:27.102Z,99.90
2022-10-02T20:43:20.512Z,99.90
2022-10-02T20:46:16.256Z,99.90
2022-10-02T20:49:13.503Z,99.90
2022-10-02T20:52:14.927Z,99.90
2022-10-02T20:54:55.868Z,99.90
2022-10-02T20:57:59.501Z,99.90
2022-10-02T21:00:57.326Z,99.90
2022-10-02T21:04:00.353Z,99.90
2022-10-02T21:06:46.977Z,99.90
2022-10-02T21:09:52.861Z,99.90
2022-10-02T21:13:09.242Z,99.90
2022-10-02T21:16:05.594Z,99.90
2022-10-02T21:18:52.193Z,99.90
2022-10-02T21:22:00.172Z,99.90
2022-10-02T21:24:55.546Z,99.90
2022-10-02T21:27:51.398Z,99.90
2022-10-02T21:30:22.724Z,99.90
2022-10-02T21:33:31.019Z,99.90
2022-10-02T21:36:09.756Z,99.90
2022-10-02T21:38:59.215Z,99.90
2022-10-02T21:42:01.587Z,99.90
2022-10-02T21:45:07.616Z,99.90
2022-10-02T21:48:13.947Z,99.90
2022-10-02T21:51:04.920Z,99.90
2022-10-02T21:53:56.052Z,99.90
2022-10-02T21:56:43.084Z,99.90
2022-10-02T21:59:48.531Z,99.90
2022-10-02T22:02:38.248Z,99.90
2022-10-02T22:05:15.440Z,99.90
2022-10-02T22:08:09.540Z,99.90
2022-10-02T22:11:04.446Z,99.90
2022-10-02T22:13:39.828Z,99.90
2022-10-02T22:16:26.863Z,99.90
2022-10-02T22:19:09.575Z,99.90
2022-10-02T22:22:15.501Z,99.90
2022-10-02T22:25:04.802Z,99.90
2022-10-02T22:27:53.142Z,99.90
2022-10-02T22:30:30.240Z,99.90
2022-10-02T22:33:23.441Z,99.90
2022-10-02T22:36:27.213Z,99.90
2022-10-02T22:39:20.388Z,99.90
2022-10-02T22:42:00.509Z,99.90
2022-10-02T22:45:06.332Z,99.90
2022-10-02T22:48:12.409Z,99.90
2022-10-02T22:50:51.461Z,99.90
2022-10-02T22:53:37.420Z,99.90
2022-10-02T22:56:36.357Z,99.90
2022-10-02T22:59:32.527Z,99.90
2022-10-02T23:02:22.283Z,99.90
2022-10-02T23:05:05.507Z,99.90
2022-10-02T23:08:16.004Z,99.90
2022-10-02T23:10:52.950Z,99.90
2022-10-02T23:13:58.974Z,99.90
2022-10-02T23:16:41.012Z,99.90
2022-10-02T23:19:15.756Z,99.90
2022-10-02T23:21:50.207Z,99.90
2022-10-02T23:24:23.511Z,99.90
2022-10-02T23:27:29.019Z,99.90
2022-10-02T23:30:05.483Z,99.90
2022-10-02T23:32:49.352Z,99.90
2022-10-02T23:35:35.981Z,99.90
2022-10-02T23:38:28.597Z,99.90
2022-10-02T23:41:26.509Z,99.90
2022-10-02T23:44:05.544Z,99.90
2022-10-02T23:46:56.331Z,99.90
2022-10-02T23:49:35.275Z,99.90
2022-10-02T23:52:28.195Z,99.90
2022-10-02T23:55:30.458Z,99.90
2022-10-02T23:58:13.421Z,99.90
